sensor_id;sensor_type;location;lat;lon;timestamp;P1;durP1;ratioP1;P2;durP2;ratioP2
23088;SDS011;11713;48.506;8.966;2023-02-04T00:01:37;1.90;;;1.67;;
23088;SDS011;11713;48.506;8.966;2023-02-04T00:04:03;1.33;;;0.90;;
23088;SDS011;11713;48.506;8.966;2023-02-04T00:06:29;2.50;;;1.10;;
23088;SDS011;11713;48.506;8.966;2023-02-04T00:08:56;1.20;;;1.10;;
23088;SDS011;11713;48.506;8.966;2023-02-04T00:11:22;1.10;;;0.80;;
23088;SDS011;11713;48.506;8.966;2023-02-04T00:13:47;1.20;;;1.10;;
23088;SDS011;11713;48.506;8.966;2023-02-04T00:16:13;1.60;;;1.50;;
23088;SDS011;11713;48.506;8.966;2023-02-04T00:18:39;1.50;;;1.40;;
23088;SDS011;11713;48.506;8.966;2023-02-04T00:21:05;1.50;;;1.40;;
23088;SDS011;11713;48.506;8.966;2023-02-04T00:23:30;1.40;;;1.30;;
23088;SDS011;11713;48.506;8.966;2023-02-04T00:25:56;0.87;;;0.80;;
23088;SDS011;11713;48.506;8.966;2023-02-04T00:28:22;1.17;;;0.90;;
23088;SDS011;11713;48.506;8.966;2023-02-04T00:30:48;1.17;;;1.07;;
23088;SDS011;11713;48.506;8.966;2023-02-04T00:33:15;1.43;;;1.10;;
23088;SDS011;11713;48.506;8.966;2023-02-04T00:35:41;1.73;;;1.10;;
23088;SDS011;11713;48.506;8.966;2023-02-04T00:38:07;1.13;;;1.03;;
23088;SDS011;11713;48.506;8.966;2023-02-04T00:40:33;1.47;;;1.00;;
23088;SDS011;11713;48.506;8.966;2023-02-04T00:42:59;1.13;;;1.03;;
23088;SDS011;11713;48.506;8.966;2023-02-04T00:45:25;1.97;;;1.27;;
23088;SDS011;11713;48.506;8.966;2023-02-04T00:47:51;1.50;;;1.10;;
23088;SDS011;11713;48.506;8.966;2023-02-04T00:50:17;1.80;;;1.30;;
23088;SDS011;11713;48.506;8.966;2023-02-04T00:52:43;2.97;;;1.00;;
23088;SDS011;11713;48.506;8.966;2023-02-04T00:55:08;1.40;;;1.20;;
23088;SDS011;11713;48.506;8.966;2023-02-04T00:57:36;2.63;;;1.40;;
23088;SDS011;11713;48.506;8.966;2023-02-04T01:00:03;1.07;;;1.00;;
23088;SDS011;11713;48.506;8.966;2023-02-04T01:02:30;2.50;;;1.30;;
23088;SDS011;11713;48.506;8.966;2023-02-04T01:04:56;1.20;;;1.10;;
23088;SDS011;11713;48.506;8.966;2023-02-04T01:07:22;1.80;;;1.20;;
23088;SDS011;11713;48.506;8.966;2023-02-04T01:09:48;1.60;;;1.13;;
23088;SDS011;11713;48.506;8.966;2023-02-04T01:12:14;1.40;;;1.30;;
23088;SDS011;11713;48.506;8.966;2023-02-04T01:14:40;1.60;;;1.20;;
23088;SDS011;11713;48.506;8.966;2023-02-04T01:17:06;1.43;;;1.20;;
23088;SDS011;11713;48.506;8.966;2023-02-04T01:19:32;1.33;;;0.93;;
23088;SDS011;11713;48.506;8.966;2023-02-04T01:21:58;0.87;;;0.87;;
23088;SDS011;11713;48.506;8.966;2023-02-04T01:24:24;1.63;;;1.37;;
23088;SDS011;11713;48.506;8.966;2023-02-04T01:27:28;2.37;;;1.40;;
23088;SDS011;11713;48.506;8.966;2023-02-04T01:29:53;1.30;;;1.17;;
23088;SDS011;11713;48.506;8.966;2023-02-04T01:32:19;1.20;;;1.10;;
23088;SDS011;11713;48.506;8.966;2023-02-04T01:34:45;1.80;;;1.33;;
23088;SDS011;11713;48.506;8.966;2023-02-04T01:37:11;1.70;;;1.60;;
23088;SDS011;11713;48.506;8.966;2023-02-04T01:39:37;6.77;;;1.60;;
23088;SDS011;11713;48.506;8.966;2023-02-04T01:42:03;1.80;;;1.60;;
23088;SDS011;11713;48.506;8.966;2023-02-04T01:44:29;1.50;;;1.10;;
23088;SDS011;11713;48.506;8.966;2023-02-04T01:46:55;1.33;;;1.23;;
23088;SDS011;11713;48.506;8.966;2023-02-04T01:49:21;2.53;;;1.60;;
23088;SDS011;11713;48.506;8.966;2023-02-04T01:51:48;1.73;;;1.37;;
23088;SDS011;11713;48.506;8.966;2023-02-04T01:54:14;1.90;;;1.70;;
23088;SDS011;11713;48.506;8.966;2023-02-04T01:56:44;2.10;;;1.60;;
23088;SDS011;11713;48.506;8.966;2023-02-04T01:59:12;1.53;;;1.37;;
23088;SDS011;11713;48.506;8.966;2023-02-04T02:01:44;3.53;;;1.97;;
23088;SDS011;11713;48.506;8.966;2023-02-04T02:04:23;2.43;;;1.90;;
23088;SDS011;11713;48.506;8.966;2023-02-04T02:07:00;2.13;;;1.73;;
23088;SDS011;11713;48.506;8.966;2023-02-04T02:09:29;2.40;;;1.70;;
23088;SDS011;11713;48.506;8.966;2023-02-04T02:11:56;2.17;;;1.80;;
23088;SDS011;11713;48.506;8.966;2023-02-04T02:14:24;1.77;;;1.67;;
23088;SDS011;11713;48.506;8.966;2023-02-04T02:16:50;2.90;;;2.00;;
23088;SDS011;11713;48.506;8.966;2023-02-04T02:19:19;2.20;;;2.00;;
23088;SDS011;11713;48.506;8.966;2023-02-04T02:22:04;2.40;;;2.10;;
23088;SDS011;11713;48.506;8.966;2023-02-04T02:24:37;4.80;;;3.30;;
23088;SDS011;11713;48.506;8.966;2023-02-04T02:27:06;7.57;;;4.07;;
23088;SDS011;11713;48.506;8.966;2023-02-04T02:29:35;7.53;;;4.10;;
23088;SDS011;11713;48.506;8.966;2023-02-04T02:32:05;5.40;;;3.00;;
23088;SDS011;11713;48.506;8.966;2023-02-04T02:34:33;4.67;;;2.97;;
23088;SDS011;11713;48.506;8.966;2023-02-04T02:37:01;3.33;;;2.50;;
23088;SDS011;11713;48.506;8.966;2023-02-04T02:39:27;3.33;;;2.03;;
23088;SDS011;11713;48.506;8.966;2023-02-04T02:41:54;3.57;;;1.90;;
23088;SDS011;11713;48.506;8.966;2023-02-04T02:44:30;2.53;;;2.17;;
23088;SDS011;11713;48.506;8.966;2023-02-04T02:46:57;3.00;;;2.40;;
23088;SDS011;11713;48.506;8.966;2023-02-04T02:49:23;2.97;;;2.33;;
23088;SDS011;11713;48.506;8.966;2023-02-04T02:51:50;4.20;;;2.40;;
23088;SDS011;11713;48.506;8.966;2023-02-04T02:54:20;6.37;;;3.20;;
23088;SDS011;11713;48.506;8.966;2023-02-04T02:56:50;3.13;;;2.47;;
23088;SDS011;11713;48.506;8.966;2023-02-04T02:59:19;5.37;;;3.20;;
23088;SDS011;11713;48.506;8.966;2023-02-04T03:01:45;5.40;;;3.60;;
23088;SDS011;11713;48.506;8.966;2023-02-04T03:04:15;6.13;;;3.80;;
23088;SDS011;11713;48.506;8.966;2023-02-04T03:06:43;7.50;;;5.50;;
23088;SDS011;11713;48.506;8.966;2023-02-04T03:09:09;8.50;;;5.10;;
23088;SDS011;11713;48.506;8.966;2023-02-04T03:11:36;7.87;;;4.47;;
23088;SDS011;11713;48.506;8.966;2023-02-04T03:14:02;5.10;;;3.50;;
23088;SDS011;11713;48.506;8.966;2023-02-04T03:16:30;3.37;;;2.83;;
23088;SDS011;11713;48.506;8.966;2023-02-04T03:18:59;3.73;;;2.87;;
23088;SDS011;11713;48.506;8.966;2023-02-04T03:21:25;4.07;;;2.80;;
23088;SDS011;11713;48.506;8.966;2023-02-04T03:23:52;2.93;;;2.63;;
23088;SDS011;11713;48.506;8.966;2023-02-04T03:26:24;3.33;;;2.80;;
23088;SDS011;11713;48.506;8.966;2023-02-04T03:28:52;3.40;;;3.00;;
23088;SDS011;11713;48.506;8.966;2023-02-04T03:31:18;4.73;;;3.27;;
23088;SDS011;11713;48.506;8.966;2023-02-04T03:33:44;4.47;;;3.70;;
23088;SDS011;11713;48.506;8.966;2023-02-04T03:36:10;4.77;;;3.57;;
23088;SDS011;11713;48.506;8.966;2023-02-04T03:38:36;4.33;;;3.30;;
23088;SDS011;11713;48.506;8.966;2023-02-04T03:41:02;5.27;;;3.77;;
23088;SDS011;11713;48.506;8.966;2023-02-04T03:43:28;4.43;;;3.30;;
23088;SDS011;11713;48.506;8.966;2023-02-04T03:45:53;3.70;;;3.20;;
23088;SDS011;11713;48.506;8.966;2023-02-04T03:48:19;4.37;;;3.80;;
23088;SDS011;11713;48.506;8.966;2023-02-04T03:50:45;4.93;;;3.63;;
23088;SDS011;11713;48.506;8.966;2023-02-04T03:53:11;4.53;;;3.60;;
23088;SDS011;11713;48.506;8.966;2023-02-04T03:55:37;4.37;;;3.47;;
23088;SDS011;11713;48.506;8.966;2023-02-04T03:58:03;4.50;;;3.63;;
23088;SDS011;11713;48.506;8.966;2023-02-04T04:00:30;3.47;;;3.00;;
23088;SDS011;11713;48.506;8.966;2023-02-04T04:02:57;3.87;;;3.10;;
23088;SDS011;11713;48.506;8.966;2023-02-04T04:05:23;3.80;;;3.10;;
23088;SDS011;11713;48.506;8.966;2023-02-04T04:07:50;4.20;;;3.50;;
23088;SDS011;11713;48.506;8.966;2023-02-04T04:10:16;3.40;;;2.80;;
23088;SDS011;11713;48.506;8.966;2023-02-04T04:12:42;4.10;;;3.10;;
23088;SDS011;11713;48.506;8.966;2023-02-04T04:15:08;4.27;;;3.30;;
23088;SDS011;11713;48.506;8.966;2023-02-04T04:17:34;8.90;;;5.27;;
23088;SDS011;11713;48.506;8.966;2023-02-04T04:19:59;10.67;;;6.17;;
23088;SDS011;11713;48.506;8.966;2023-02-04T04:22:25;10.53;;;6.13;;
23088;SDS011;11713;48.506;8.966;2023-02-04T04:24:51;11.17;;;6.30;;
23088;SDS011;11713;48.506;8.966;2023-02-04T04:27:17;6.33;;;4.20;;
23088;SDS011;11713;48.506;8.966;2023-02-04T04:29:43;4.43;;;3.30;;
23088;SDS011;11713;48.506;8.966;2023-02-04T04:32:09;3.47;;;3.10;;
23088;SDS011;11713;48.506;8.966;2023-02-04T04:34:35;3.67;;;3.13;;
23088;SDS011;11713;48.506;8.966;2023-02-04T04:37:00;3.63;;;2.97;;
23088;SDS011;11713;48.506;8.966;2023-02-04T04:39:26;4.93;;;3.77;;
23088;SDS011;11713;48.506;8.966;2023-02-04T04:41:52;4.00;;;3.27;;
23088;SDS011;11713;48.506;8.966;2023-02-04T04:44:18;7.87;;;3.30;;
23088;SDS011;11713;48.506;8.966;2023-02-04T04:46:44;4.23;;;3.47;;
23088;SDS011;11713;48.506;8.966;2023-02-04T04:49:09;4.40;;;3.50;;
23088;SDS011;11713;48.506;8.966;2023-02-04T04:51:35;4.77;;;3.73;;
23088;SDS011;11713;48.506;8.966;2023-02-04T04:54:01;3.87;;;3.47;;
23088;SDS011;11713;48.506;8.966;2023-02-04T04:56:27;4.57;;;3.00;;
23088;SDS011;11713;48.506;8.966;2023-02-04T04:58:53;2.67;;;2.43;;
23088;SDS011;11713;48.506;8.966;2023-02-04T05:01:19;2.87;;;2.43;;
23088;SDS011;11713;48.506;8.966;2023-02-04T05:03:46;3.30;;;2.10;;
23088;SDS011;11713;48.506;8.966;2023-02-04T05:06:12;2.10;;;1.57;;
23088;SDS011;11713;48.506;8.966;2023-02-04T05:08:39;4.23;;;1.80;;
23088;SDS011;11713;48.506;8.966;2023-02-04T05:11:04;2.87;;;1.80;;
23088;SDS011;11713;48.506;8.966;2023-02-04T05:13:30;2.93;;;1.80;;
23088;SDS011;11713;48.506;8.966;2023-02-04T05:15:56;3.30;;;1.80;;
23088;SDS011;11713;48.506;8.966;2023-02-04T05:18:22;2.77;;;1.70;;
23088;SDS011;11713;48.506;8.966;2023-02-04T05:20:48;1.60;;;1.30;;
23088;SDS011;11713;48.506;8.966;2023-02-04T05:23:14;1.37;;;1.20;;
23088;SDS011;11713;48.506;8.966;2023-02-04T05:25:41;3.07;;;1.37;;
23088;SDS011;11713;48.506;8.966;2023-02-04T05:28:08;3.50;;;1.73;;
23088;SDS011;11713;48.506;8.966;2023-02-04T05:30:33;3.97;;;1.40;;
23088;SDS011;11713;48.506;8.966;2023-02-04T05:32:59;2.00;;;1.37;;
23088;SDS011;11713;48.506;8.966;2023-02-04T05:35:26;3.37;;;1.30;;
23088;SDS011;11713;48.506;8.966;2023-02-04T05:37:51;3.17;;;0.90;;
23088;SDS011;11713;48.506;8.966;2023-02-04T05:40:17;1.90;;;1.00;;
23088;SDS011;11713;48.506;8.966;2023-02-04T05:42:43;3.60;;;1.30;;
23088;SDS011;11713;48.506;8.966;2023-02-04T05:45:12;3.83;;;1.17;;
23088;SDS011;11713;48.506;8.966;2023-02-04T05:47:39;3.47;;;1.10;;
23088;SDS011;11713;48.506;8.966;2023-02-04T05:50:05;3.07;;;1.13;;
23088;SDS011;11713;48.506;8.966;2023-02-04T05:52:31;4.27;;;1.30;;
23088;SDS011;11713;48.506;8.966;2023-02-04T05:54:57;3.47;;;1.23;;
23088;SDS011;11713;48.506;8.966;2023-02-04T05:57:22;2.57;;;1.03;;
23088;SDS011;11713;48.506;8.966;2023-02-04T05:59:48;4.07;;;1.30;;
23088;SDS011;11713;48.506;8.966;2023-02-04T06:02:14;3.23;;;1.50;;
23088;SDS011;11713;48.506;8.966;2023-02-04T06:04:39;5.93;;;1.70;;
23088;SDS011;11713;48.506;8.966;2023-02-04T06:07:05;5.03;;;1.70;;
23088;SDS011;11713;48.506;8.966;2023-02-04T06:09:31;2.57;;;1.40;;
23088;SDS011;11713;48.506;8.966;2023-02-04T06:11:57;4.57;;;1.67;;
23088;SDS011;11713;48.506;8.966;2023-02-04T06:14:23;4.47;;;1.40;;
23088;SDS011;11713;48.506;8.966;2023-02-04T06:16:48;6.53;;;1.50;;
23088;SDS011;11713;48.506;8.966;2023-02-04T06:19:14;4.67;;;1.20;;
23088;SDS011;11713;48.506;8.966;2023-02-04T06:21:40;3.27;;;1.53;;
23088;SDS011;11713;48.506;8.966;2023-02-04T06:24:06;5.70;;;1.67;;
23088;SDS011;11713;48.506;8.966;2023-02-04T06:26:32;3.27;;;1.47;;
23088;SDS011;11713;48.506;8.966;2023-02-04T06:28:57;2.83;;;1.50;;
23088;SDS011;11713;48.506;8.966;2023-02-04T06:31:23;5.63;;;2.10;;
23088;SDS011;11713;48.506;8.966;2023-02-04T06:33:49;3.77;;;1.70;;
23088;SDS011;11713;48.506;8.966;2023-02-04T06:36:15;4.53;;;1.73;;
23088;SDS011;11713;48.506;8.966;2023-02-04T06:38:40;7.73;;;2.50;;
23088;SDS011;11713;48.506;8.966;2023-02-04T06:41:06;5.03;;;1.70;;
23088;SDS011;11713;48.506;8.966;2023-02-04T06:43:32;3.50;;;1.60;;
23088;SDS011;11713;48.506;8.966;2023-02-04T06:45:58;5.67;;;1.80;;
23088;SDS011;11713;48.506;8.966;2023-02-04T06:48:23;4.33;;;1.67;;
23088;SDS011;11713;48.506;8.966;2023-02-04T06:50:49;5.90;;;2.20;;
23088;SDS011;11713;48.506;8.966;2023-02-04T06:53:15;7.63;;;2.07;;
23088;SDS011;11713;48.506;8.966;2023-02-04T06:55:41;3.83;;;1.77;;
23088;SDS011;11713;48.506;8.966;2023-02-04T06:58:06;3.40;;;1.70;;
23088;SDS011;11713;48.506;8.966;2023-02-04T07:00:32;6.40;;;1.87;;
23088;SDS011;11713;48.506;8.966;2023-02-04T07:02:58;4.53;;;1.87;;
23088;SDS011;11713;48.506;8.966;2023-02-04T07:05:24;4.30;;;1.67;;
23088;SDS011;11713;48.506;8.966;2023-02-04T07:07:50;4.60;;;1.70;;
23088;SDS011;11713;48.506;8.966;2023-02-04T07:10:16;4.60;;;1.90;;
23088;SDS011;11713;48.506;8.966;2023-02-04T07:12:42;3.47;;;1.97;;
23088;SDS011;11713;48.506;8.966;2023-02-04T07:15:08;4.03;;;1.83;;
23088;SDS011;11713;48.506;8.966;2023-02-04T07:17:34;4.80;;;1.90;;
23088;SDS011;11713;48.506;8.966;2023-02-04T07:20:00;7.00;;;2.33;;
23088;SDS011;11713;48.506;8.966;2023-02-04T07:22:26;4.97;;;2.00;;
23088;SDS011;11713;48.506;8.966;2023-02-04T07:24:51;4.60;;;2.00;;
23088;SDS011;11713;48.506;8.966;2023-02-04T07:27:17;3.37;;;2.00;;
23088;SDS011;11713;48.506;8.966;2023-02-04T07:29:43;4.50;;;1.83;;
23088;SDS011;11713;48.506;8.966;2023-02-04T07:32:09;6.07;;;2.30;;
23088;SDS011;11713;48.506;8.966;2023-02-04T07:34:34;4.83;;;2.03;;
23088;SDS011;11713;48.506;8.966;2023-02-04T07:37:00;4.47;;;2.27;;
23088;SDS011;11713;48.506;8.966;2023-02-04T07:39:26;5.83;;;2.50;;
23088;SDS011;11713;48.506;8.966;2023-02-04T07:41:52;6.00;;;2.67;;
23088;SDS011;11713;48.506;8.966;2023-02-04T07:44:22;4.37;;;2.13;;
23088;SDS011;11713;48.506;8.966;2023-02-04T07:46:48;4.53;;;2.77;;
23088;SDS011;11713;48.506;8.966;2023-02-04T07:49:13;7.00;;;2.53;;
23088;SDS011;11713;48.506;8.966;2023-02-04T07:51:39;4.40;;;2.77;;
23088;SDS011;11713;48.506;8.966;2023-02-04T07:54:05;5.17;;;3.07;;
23088;SDS011;11713;48.506;8.966;2023-02-04T07:56:31;6.07;;;3.77;;
23088;SDS011;11713;48.506;8.966;2023-02-04T07:58:56;8.47;;;4.33;;
23088;SDS011;11713;48.506;8.966;2023-02-04T08:01:22;5.80;;;3.27;;
23088;SDS011;11713;48.506;8.966;2023-02-04T08:03:48;5.30;;;2.80;;
23088;SDS011;11713;48.506;8.966;2023-02-04T08:06:14;8.90;;;3.40;;
23088;SDS011;11713;48.506;8.966;2023-02-04T08:08:39;3.50;;;2.37;;
23088;SDS011;11713;48.506;8.966;2023-02-04T08:11:05;5.70;;;2.77;;
23088;SDS011;11713;48.506;8.966;2023-02-04T08:13:31;9.53;;;3.37;;
23088;SDS011;11713;48.506;8.966;2023-02-04T08:15:57;5.63;;;2.67;;
23088;SDS011;11713;48.506;8.966;2023-02-04T08:18:23;11.00;;;3.90;;
23088;SDS011;11713;48.506;8.966;2023-02-04T08:20:49;14.57;;;4.27;;
23088;SDS011;11713;48.506;8.966;2023-02-04T08:23:15;7.37;;;3.93;;
23088;SDS011;11713;48.506;8.966;2023-02-04T08:25:41;8.37;;;4.10;;
23088;SDS011;11713;48.506;8.966;2023-02-04T08:28:06;8.80;;;3.80;;
23088;SDS011;11713;48.506;8.966;2023-02-04T08:30:32;15.17;;;4.77;;
23088;SDS011;11713;48.506;8.966;2023-02-04T08:32:58;17.27;;;5.13;;
23088;SDS011;11713;48.506;8.966;2023-02-04T08:35:24;13.97;;;5.10;;
23088;SDS011;11713;48.506;8.966;2023-02-04T08:37:49;14.33;;;5.00;;
23088;SDS011;11713;48.506;8.966;2023-02-04T08:40:16;10.43;;;4.80;;
23088;SDS011;11713;48.506;8.966;2023-02-04T08:42:42;14.13;;;5.47;;
23088;SDS011;11713;48.506;8.966;2023-02-04T08:45:08;15.83;;;5.10;;
23088;SDS011;11713;48.506;8.966;2023-02-04T08:47:34;11.07;;;5.00;;
23088;SDS011;11713;48.506;8.966;2023-02-04T08:49:59;14.43;;;5.60;;
23088;SDS011;11713;48.506;8.966;2023-02-04T08:52:25;13.90;;;5.40;;
23088;SDS011;11713;48.506;8.966;2023-02-04T08:54:51;13.50;;;5.50;;
23088;SDS011;11713;48.506;8.966;2023-02-04T08:57:17;11.73;;;4.47;;
23088;SDS011;11713;48.506;8.966;2023-02-04T08:59:42;13.27;;;4.90;;
23088;SDS011;11713;48.506;8.966;2023-02-04T09:02:10;15.07;;;5.00;;
23088;SDS011;11713;48.506;8.966;2023-02-04T09:04:36;12.63;;;5.87;;
23088;SDS011;11713;48.506;8.966;2023-02-04T09:07:05;9.73;;;5.17;;
23088;SDS011;11713;48.506;8.966;2023-02-04T09:09:31;10.53;;;4.90;;
23088;SDS011;11713;48.506;8.966;2023-02-04T09:11:57;15.23;;;5.37;;
23088;SDS011;11713;48.506;8.966;2023-02-04T09:14:23;13.20;;;4.77;;
23088;SDS011;11713;48.506;8.966;2023-02-04T09:16:49;17.43;;;5.63;;
23088;SDS011;11713;48.506;8.966;2023-02-04T09:19:15;10.20;;;4.60;;
23088;SDS011;11713;48.506;8.966;2023-02-04T09:21:43;13.70;;;5.40;;
23088;SDS011;11713;48.506;8.966;2023-02-04T09:24:11;15.87;;;5.50;;
23088;SDS011;11713;48.506;8.966;2023-02-04T09:26:37;15.00;;;5.30;;
23088;SDS011;11713;48.506;8.966;2023-02-04T09:29:03;11.87;;;5.50;;
23088;SDS011;11713;48.506;8.966;2023-02-04T09:31:28;14.97;;;5.13;;
23088;SDS011;11713;48.506;8.966;2023-02-04T09:33:54;16.07;;;5.63;;
23088;SDS011;11713;48.506;8.966;2023-02-04T09:36:20;11.43;;;4.63;;
23088;SDS011;11713;48.506;8.966;2023-02-04T09:38:46;11.40;;;4.30;;
23088;SDS011;11713;48.506;8.966;2023-02-04T09:41:12;11.97;;;4.10;;
23088;SDS011;11713;48.506;8.966;2023-02-04T09:43:42;15.67;;;4.70;;
23088;SDS011;11713;48.506;8.966;2023-02-04T09:46:21;12.10;;;4.20;;
23088;SDS011;11713;48.506;8.966;2023-02-04T09:48:48;10.43;;;4.03;;
23088;SDS011;11713;48.506;8.966;2023-02-04T09:51:48;14.93;;;4.00;;
23088;SDS011;11713;48.506;8.966;2023-02-04T09:54:10;15.60;;;4.03;;
23088;SDS011;11713;48.506;8.966;2023-02-04T09:56:38;15.33;;;4.23;;
23088;SDS011;11713;48.506;8.966;2023-02-04T09:59:11;7.83;;;3.63;;
23088;SDS011;11713;48.506;8.966;2023-02-04T10:01:38;11.03;;;3.40;;
23088;SDS011;11713;48.506;8.966;2023-02-04T10:04:04;9.50;;;3.93;;
23088;SDS011;11713;48.506;8.966;2023-02-04T10:06:33;15.37;;;3.53;;
23088;SDS011;11713;48.506;8.966;2023-02-04T10:08:59;9.90;;;3.30;;
23088;SDS011;11713;48.506;8.966;2023-02-04T10:11:25;13.00;;;3.80;;
23088;SDS011;11713;48.506;8.966;2023-02-04T10:13:55;11.13;;;3.50;;
23088;SDS011;11713;48.506;8.966;2023-02-04T10:19:03;12.43;;;3.27;;
23088;SDS011;11713;48.506;8.966;2023-02-04T10:21:35;9.90;;;3.00;;
23088;SDS011;11713;48.506;8.966;2023-02-04T10:24:03;8.90;;;2.87;;
23088;SDS011;11713;48.506;8.966;2023-02-04T10:26:34;7.43;;;2.80;;
23088;SDS011;11713;48.506;8.966;2023-02-04T10:29:01;7.93;;;2.63;;
23088;SDS011;11713;48.506;8.966;2023-02-04T10:31:28;6.37;;;2.20;;
23088;SDS011;11713;48.506;8.966;2023-02-04T10:34:04;14.03;;;2.57;;
23088;SDS011;11713;48.506;8.966;2023-02-04T10:36:40;9.20;;;3.07;;
23088;SDS011;11713;48.506;8.966;2023-02-04T10:39:24;9.77;;;2.80;;
23088;SDS011;11713;48.506;8.966;2023-02-04T10:41:55;7.03;;;2.53;;
23088;SDS011;11713;48.506;8.966;2023-02-04T10:44:30;10.07;;;2.57;;
23088;SDS011;11713;48.506;8.966;2023-02-04T10:47:19;10.13;;;2.47;;
23088;SDS011;11713;48.506;8.966;2023-02-04T10:52:32;5.90;;;2.00;;
23088;SDS011;11713;48.506;8.966;2023-02-04T10:55:05;7.17;;;2.30;;
23088;SDS011;11713;48.506;8.966;2023-02-04T10:57:41;5.77;;;2.03;;
23088;SDS011;11713;48.506;8.966;2023-02-04T11:00:14;9.47;;;2.87;;
23088;SDS011;11713;48.506;8.966;2023-02-04T11:02:47;11.00;;;2.20;;
23088;SDS011;11713;48.506;8.966;2023-02-04T11:05:28;7.17;;;2.50;;
23088;SDS011;11713;48.506;8.966;2023-02-04T11:07:55;7.97;;;2.13;;
23088;SDS011;11713;48.506;8.966;2023-02-04T11:10:29;12.57;;;2.30;;
23088;SDS011;11713;48.506;8.966;2023-02-04T11:20:49;8.40;;;2.90;;
23088;SDS011;11713;48.506;8.966;2023-02-04T11:33:48;10.57;;;2.60;;
23088;SDS011;11713;48.506;8.966;2023-02-04T11:36:26;14.67;;;7.17;;
23088;SDS011;11713;48.506;8.966;2023-02-04T11:38:52;14.30;;;9.73;;
23088;SDS011;11713;48.506;8.966;2023-02-04T11:41:26;10.50;;;2.50;;
23088;SDS011;11713;48.506;8.966;2023-02-04T11:43:59;8.93;;;2.23;;
23088;SDS011;11713;48.506;8.966;2023-02-04T11:46:25;10.83;;;3.30;;
23088;SDS011;11713;48.506;8.966;2023-02-04T11:48:53;9.40;;;3.23;;
23088;SDS011;11713;48.506;8.966;2023-02-04T11:51:27;9.73;;;2.73;;
23088;SDS011;11713;48.506;8.966;2023-02-04T11:53:55;11.27;;;2.37;;
23088;SDS011;11713;48.506;8.966;2023-02-04T11:56:21;7.80;;;2.50;;
23088;SDS011;11713;48.506;8.966;2023-02-04T11:58:50;8.07;;;2.53;;
23088;SDS011;11713;48.506;8.966;2023-02-04T12:01:28;7.77;;;3.00;;
23088;SDS011;11713;48.506;8.966;2023-02-04T12:03:57;11.63;;;3.27;;
23088;SDS011;11713;48.506;8.966;2023-02-04T12:06:25;9.70;;;2.30;;
23088;SDS011;11713;48.506;8.966;2023-02-04T12:09:07;10.07;;;2.90;;
23088;SDS011;11713;48.506;8.966;2023-02-04T12:11:54;8.50;;;2.00;;
23088;SDS011;11713;48.506;8.966;2023-02-04T12:14:26;7.80;;;2.00;;
23088;SDS011;11713;48.506;8.966;2023-02-04T12:17:11;9.23;;;2.10;;
23088;SDS011;11713;48.506;8.966;2023-02-04T12:19:40;11.60;;;4.83;;
23088;SDS011;11713;48.506;8.966;2023-02-04T12:22:05;10.00;;;2.70;;
23088;SDS011;11713;48.506;8.966;2023-02-04T12:24:31;10.73;;;3.00;;
23088;SDS011;11713;48.506;8.966;2023-02-04T12:26:57;7.30;;;2.90;;
23088;SDS011;11713;48.506;8.966;2023-02-04T12:29:23;27.07;;;20.23;;
23088;SDS011;11713;48.506;8.966;2023-02-04T12:31:49;8.87;;;4.00;;
23088;SDS011;11713;48.506;8.966;2023-02-04T12:34:14;14.50;;;3.87;;
23088;SDS011;11713;48.506;8.966;2023-02-04T12:36:41;9.23;;;4.53;;
23088;SDS011;11713;48.506;8.966;2023-02-04T12:39:07;8.77;;;3.43;;
23088;SDS011;11713;48.506;8.966;2023-02-04T12:41:34;9.00;;;3.07;;
23088;SDS011;11713;48.506;8.966;2023-02-04T12:44:00;10.80;;;2.90;;
23088;SDS011;11713;48.506;8.966;2023-02-04T12:46:27;6.97;;;2.93;;
23088;SDS011;11713;48.506;8.966;2023-02-04T12:48:53;9.20;;;2.17;;
23088;SDS011;11713;48.506;8.966;2023-02-04T12:51:19;13.50;;;2.63;;
23088;SDS011;11713;48.506;8.966;2023-02-04T12:53:45;12.60;;;3.30;;
23088;SDS011;11713;48.506;8.966;2023-02-04T12:56:12;27.93;;;14.93;;
23088;SDS011;11713;48.506;8.966;2023-02-04T12:58:39;16.40;;;2.97;;
23088;SDS011;11713;48.506;8.966;2023-02-04T13:01:04;10.80;;;3.20;;
23088;SDS011;11713;48.506;8.966;2023-02-04T13:03:30;11.73;;;2.87;;
23088;SDS011;11713;48.506;8.966;2023-02-04T13:05:57;8.47;;;2.53;;
23088;SDS011;11713;48.506;8.966;2023-02-04T13:08:23;9.33;;;2.77;;
23088;SDS011;11713;48.506;8.966;2023-02-04T13:10:49;8.40;;;2.47;;
23088;SDS011;11713;48.506;8.966;2023-02-04T13:13:19;12.83;;;2.77;;
23088;SDS011;11713;48.506;8.966;2023-02-04T13:15:46;8.27;;;2.60;;
23088;SDS011;11713;48.506;8.966;2023-02-04T13:18:12;12.00;;;2.37;;
23088;SDS011;11713;48.506;8.966;2023-02-04T13:20:38;9.10;;;2.67;;
23088;SDS011;11713;48.506;8.966;2023-02-04T13:23:05;14.67;;;3.60;;
23088;SDS011;11713;48.506;8.966;2023-02-04T13:25:31;10.80;;;2.97;;
23088;SDS011;11713;48.506;8.966;2023-02-04T13:27:56;10.77;;;2.90;;
23088;SDS011;11713;48.506;8.966;2023-02-04T13:30:22;11.50;;;2.87;;
23088;SDS011;11713;48.506;8.966;2023-02-04T13:32:48;7.43;;;2.60;;
23088;SDS011;11713;48.506;8.966;2023-02-04T13:35:14;8.47;;;2.57;;
23088;SDS011;11713;48.506;8.966;2023-02-04T13:37:40;10.87;;;2.67;;
23088;SDS011;11713;48.506;8.966;2023-02-04T13:40:08;7.17;;;2.70;;
23088;SDS011;11713;48.506;8.966;2023-02-04T13:42:35;11.50;;;2.50;;
23088;SDS011;11713;48.506;8.966;2023-02-04T13:45:01;10.13;;;2.60;;
23088;SDS011;11713;48.506;8.966;2023-02-04T13:47:27;9.13;;;2.27;;
23088;SDS011;11713;48.506;8.966;2023-02-04T13:49:53;10.47;;;2.10;;
23088;SDS011;11713;48.506;8.966;2023-02-04T13:52:19;5.93;;;2.23;;
23088;SDS011;11713;48.506;8.966;2023-02-04T13:54:47;7.80;;;2.23;;
23088;SDS011;11713;48.506;8.966;2023-02-04T13:57:14;7.07;;;2.00;;
23088;SDS011;11713;48.506;8.966;2023-02-04T13:59:41;8.90;;;2.10;;
23088;SDS011;11713;48.506;8.966;2023-02-04T14:02:07;10.53;;;2.30;;
23088;SDS011;11713;48.506;8.966;2023-02-04T14:04:35;10.53;;;2.37;;
23088;SDS011;11713;48.506;8.966;2023-02-04T14:07:00;5.83;;;2.00;;
23088;SDS011;11713;48.506;8.966;2023-02-04T14:09:26;9.33;;;2.30;;
23088;SDS011;11713;48.506;8.966;2023-02-04T14:11:53;10.83;;;2.43;;
23088;SDS011;11713;48.506;8.966;2023-02-04T14:14:21;8.70;;;2.50;;
23088;SDS011;11713;48.506;8.966;2023-02-04T14:16:48;7.00;;;2.10;;
23088;SDS011;11713;48.506;8.966;2023-02-04T14:19:15;7.37;;;2.03;;
23088;SDS011;11713;48.506;8.966;2023-02-04T14:21:41;11.53;;;2.90;;
23088;SDS011;11713;48.506;8.966;2023-02-04T14:24:06;7.40;;;1.93;;
23088;SDS011;11713;48.506;8.966;2023-02-04T14:26:32;6.47;;;2.20;;
23088;SDS011;11713;48.506;8.966;2023-02-04T14:28:58;7.03;;;1.87;;
23088;SDS011;11713;48.506;8.966;2023-02-04T14:31:25;6.63;;;1.93;;
23088;SDS011;11713;48.506;8.966;2023-02-04T14:33:51;6.60;;;2.20;;
23088;SDS011;11713;48.506;8.966;2023-02-04T14:36:19;5.60;;;1.57;;
23088;SDS011;11713;48.506;8.966;2023-02-04T14:38:46;7.57;;;1.80;;
23088;SDS011;11713;48.506;8.966;2023-02-04T14:41:12;9.43;;;2.90;;
23088;SDS011;11713;48.506;8.966;2023-02-04T14:43:44;9.70;;;2.33;;
23088;SDS011;11713;48.506;8.966;2023-02-04T14:46:10;7.67;;;2.03;;
23088;SDS011;11713;48.506;8.966;2023-02-04T14:48:36;8.73;;;2.37;;
23088;SDS011;11713;48.506;8.966;2023-02-04T14:51:02;5.43;;;1.77;;
23088;SDS011;11713;48.506;8.966;2023-02-04T14:53:29;8.23;;;2.03;;
23088;SDS011;11713;48.506;8.966;2023-02-04T14:55:54;6.67;;;1.80;;
23088;SDS011;11713;48.506;8.966;2023-02-04T14:58:21;9.13;;;2.13;;
23088;SDS011;11713;48.506;8.966;2023-02-04T15:00:46;8.53;;;2.40;;
23088;SDS011;11713;48.506;8.966;2023-02-04T15:03:12;6.07;;;2.13;;
23088;SDS011;11713;48.506;8.966;2023-02-04T15:05:38;11.43;;;2.30;;
23088;SDS011;11713;48.506;8.966;2023-02-04T15:08:04;8.60;;;2.87;;
23088;SDS011;11713;48.506;8.966;2023-02-04T15:10:29;11.80;;;4.90;;